sensor_id;sensor_type;location;lat;lon;timestamp;temperature;humidity
13806;DHT22;6974;53.606;9.872;2022-09-28T00:00:19;10.80;99.90
13806;DHT22;6974;53.606;9.872;2022-09-28T00:02:46;10.80;99.90
13806;DHT22;6974;53.606;9.872;2022-09-28T00:05:13;10.80;99.90
13806;DHT22;6974;53.606;9.872;2022-09-28T00:07:40;10.80;99.90
13806;DHT22;6974;53.606;9.872;2022-09-28T00:10:09;10.80;99.90
13806;DHT22;6974;53.606;9.872;2022-09-28T00:12:37;10.80;99.90
13806;DHT22;6974;53.606;9.872;2022-09-28T00:15:04;10.70;99.90
13806;DHT22;6974;53.606;9.872;2022-09-28T00:17:32;10.70;99.90
13806;DHT22;6974;53.606;9.872;2022-09-28T00:20:01;10.70;99.90
13806;DHT22;6974;53.606;9.872;2022-09-28T00:22:29;10.70;99.90
13806;DHT22;6974;53.606;9.872;2022-09-28T00:24:56;10.70;99.90
13806;DHT22;6974;53.606;9.872;2022-09-28T00:27:24;10.70;99.90
13806;DHT22;6974;53.606;9.872;2022-09-28T00:29:50;10.60;99.90
13806;DHT22;6974;53.606;9.872;2022-09-28T00:32:17;10.60;99.90
13806;DHT22;6974;53.606;9.872;2022-09-28T00:34:46;10.60;99.90
13806;DHT22;6974;53.606;9.872;2022-09-28T00:37:14;10.60;99.90
13806;DHT22;6974;53.606;9.872;2022-09-28T00:39:40;10.50;99.90
13806;DHT22;6974;53.606;9.872;2022-09-28T00:42:11;10.60;99.90
13806;DHT22;6974;53.606;9.872;2022-09-28T00:44:46;10.50;99.90
13806;DHT22;6974;53.606;9.872;2022-09-28T00:47:26;10.50;99.90
13806;DHT22;6974;53.606;9.872;2022-09-28T00:49:58;10.50;99.90
13806;DHT22;6974;53.606;9.872;2022-09-28T00:52:30;10.50;99.90
13806;DHT22;6974;53.606;9.872;2022-09-28T00:54:59;10.40;99.90
13806;DHT22;6974;53.606;9.872;2022-09-28T00:57:28;10.40;99.90
13806;DHT22;6974;53.606;9.872;2022-09-28T00:59:58;10.40;99.90
13806;DHT22;6974;53.606;9.872;2022-09-28T01:02:26;10.40;99.90
13806;DHT22;6974;53.606;9.872;2022-09-28T01:04:53;10.30;99.90
13806;DHT22;6974;53.606;9.872;2022-09-28T01:07:21;10.30;99.90
13806;DHT22;6974;53.606;9.872;2022-09-28T01:09:49;10.20;99.90
13806;DHT22;6974;53.606;9.872;2022-09-28T01:12:18;10.20;99.90
13806;DHT22;6974;53.606;9.872;2022-09-28T01:14:46;10.20;99.90
13806;DHT22;6974;53.606;9.872;2022-09-28T01:17:16;10.20;99.90
13806;DHT22;6974;53.606;9.872;2022-09-28T01:20:03;10.20;99.90
13806;DHT22;6974;53.606;9.872;2022-09-28T01:22:54;10.10;99.90
13806;DHT22;6974;53.606;9.872;2022-09-28T01:25:39;10.10;99.90
13806;DHT22;6974;53.606;9.872;2022-09-28T01:28:11;10.00;99.90
13806;DHT22;6974;53.606;9.872;2022-09-28T01:30:44;10.00;99.90
13806;DHT22;6974;53.606;9.872;2022-09-28T01:33:17;9.90;99.90
13806;DHT22;6974;53.606;9.872;2022-09-28T01:35:50;9.90;99.90
13806;DHT22;6974;53.606;9.872;2022-09-28T01:38:20;9.90;99.90
13806;DHT22;6974;53.606;9.872;2022-09-28T01:40:48;9.90;99.90
13806;DHT22;6974;53.606;9.872;2022-09-28T01:43:21;9.90;99.90
13806;DHT22;6974;53.606;9.872;2022-09-28T01:45:51;9.80;99.90
13806;DHT22;6974;53.606;9.872;2022-09-28T01:48:23;9.80;99.90
13806;DHT22;6974;53.606;9.872;2022-09-28T01:50:55;9.80;99.90
13806;DHT22;6974;53.606;9.872;2022-09-28T01:53:27;9.80;99.90
13806;DHT22;6974;53.606;9.872;2022-09-28T01:55:57;9.70;99.90
13806;DHT22;6974;53.606;9.872;2022-09-28T01:58:31;9.70;99.90
13806;DHT22;6974;53.606;9.872;2022-09-28T02:01:05;9.60;99.90
13806;DHT22;6974;53.606;9.872;2022-09-28T02:03:38;9.60;99.90
13806;DHT22;6974;53.606;9.872;2022-09-28T02:06:11;9.60;99.90
13806;DHT22;6974;53.606;9.872;2022-09-28T02:08:46;9.50;99.90
13806;DHT22;6974;53.606;9.872;2022-09-28T02:11:16;9.50;99.90
13806;DHT22;6974;53.606;9.872;2022-09-28T02:13:47;9.50;99.90
13806;DHT22;6974;53.606;9.872;2022-09-28T02:16:18;9.50;99.90
13806;DHT22;6974;53.606;9.872;2022-09-28T02:18:46;9.50;99.90
13806;DHT22;6974;53.606;9.872;2022-09-28T02:21:19;9.50;99.90
13806;DHT22;6974;53.606;9.872;2022-09-28T02:23:52;9.50;99.90
13806;DHT22;6974;53.606;9.872;2022-09-28T02:26:22;9.50;99.90
13806;DHT22;6974;53.606;9.872;2022-09-28T02:28:51;9.50;99.90
13806;DHT22;6974;53.606;9.872;2022-09-28T02:31:18;9.50;99.90
13806;DHT22;6974;53.606;9.872;2022-09-28T02:33:45;9.50;99.90
13806;DHT22;6974;53.606;9.872;2022-09-28T02:36:13;9.50;99.90
13806;DHT22;6974;53.606;9.872;2022-09-28T02:38:40;9.50;99.90
13806;DHT22;6974;53.606;9.872;2022-09-28T02:41:17;9.60;99.90
13806;DHT22;6974;53.606;9.872;2022-09-28T02:43:55;9.60;99.90
13806;DHT22;6974;53.606;9.872;2022-09-28T02:46:28;9.60;99.90
13806;DHT22;6974;53.606;9.872;2022-09-28T02:49:10;9.60;99.90
13806;DHT22;6974;53.606;9.872;2022-09-28T02:51:44;9.60;99.90
13806;DHT22;6974;53.606;9.872;2022-09-28T02:54:42;9.60;99.90
13806;DHT22;6974;53.606;9.872;2022-09-28T02:57:18;9.50;99.90
13806;DHT22;6974;53.606;9.872;2022-09-28T03:00:00;9.50;99.90
13806;DHT22;6974;53.606;9.872;2022-09-28T03:02:32;9.50;99.90
13806;DHT22;6974;53.606;9.872;2022-09-28T03:05:08;9.50;99.90
13806;DHT22;6974;53.606;9.872;2022-09-28T03:07:40;9.50;99.90
13806;DHT22;6974;53.606;9.872;2022-09-28T03:10:14;9.50;99.90
13806;DHT22;6974;53.606;9.872;2022-09-28T03:12:43;9.50;99.90
13806;DHT22;6974;53.606;9.872;2022-09-28T03:15:19;9.50;99.90
13806;DHT22;6974;53.606;9.872;2022-09-28T03:17:47;9.50;99.90
13806;DHT22;6974;53.606;9.872;2022-09-28T03:20:13;9.50;99.90
13806;DHT22;6974;53.606;9.872;2022-09-28T03:22:40;9.50;99.90
13806;DHT22;6974;53.606;9.872;2022-09-28T03:25:07;9.40;99.90
13806;DHT22;6974;53.606;9.872;2022-09-28T03:27:34;9.40;99.90
13806;DHT22;6974;53.606;9.872;2022-09-28T03:30:02;9.50;99.90
13806;DHT22;6974;53.606;9.872;2022-09-28T03:32:31;9.50;99.90
13806;DHT22;6974;53.606;9.872;2022-09-28T03:34:57;9.50;99.90
13806;DHT22;6974;53.606;9.872;2022-09-28T03:37:25;9.50;99.90
13806;DHT22;6974;53.606;9.872;2022-09-28T03:39:52;9.40;99.90
13806;DHT22;6974;53.606;9.872;2022-09-28T03:42:19;9.40;99.90
13806;DHT22;6974;53.606;9.872;2022-09-28T03:44:46;9.40;99.90
13806;DHT22;6974;53.606;9.872;2022-09-28T03:47:12;9.40;99.90
13806;DHT22;6974;53.606;9.872;2022-09-28T03:49:41;9.40;99.90
13806;DHT22;6974;53.606;9.872;2022-09-28T03:52:08;9.50;99.90
13806;DHT22;6974;53.606;9.872;2022-09-28T03:54:35;9.40;99.90
13806;DHT22;6974;53.606;9.872;2022-09-28T03:57:02;9.40;99.90
13806;DHT22;6974;53.606;9.872;2022-09-28T03:59:29;9.40;99.90
13806;DHT22;6974;53.606;9.872;2022-09-28T04:01:56;9.40;99.90
13806;DHT22;6974;53.606;9.872;2022-09-28T04:04:23;9.50;99.90
13806;DHT22;6974;53.606;9.872;2022-09-28T04:06:51;9.50;99.90
13806;DHT22;6974;53.606;9.872;2022-09-28T04:09:17;9.50;99.90
13806;DHT22;6974;53.606;9.872;2022-09-28T04:11:45;9.50;99.90
13806;DHT22;6974;53.606;9.872;2022-09-28T04:14:12;9.50;99.90
13806;DHT22;6974;53.606;9.872;2022-09-28T04:16:39;9.50;99.90
13806;DHT22;6974;53.606;9.872;2022-09-28T04:19:05;9.40;99.90
13806;DHT22;6974;53.606;9.872;2022-09-28T04:21:32;9.40;99.90
13806;DHT22;6974;53.606;9.872;2022-09-28T04:24:01;9.40;99.90
13806;DHT22;6974;53.606;9.872;2022-09-28T04:26:28;9.40;99.90
13806;DHT22;6974;53.606;9.872;2022-09-28T04:28:55;9.40;99.90
13806;DHT22;6974;53.606;9.872;2022-09-28T04:31:40;9.40;99.90
13806;DHT22;6974;53.606;9.872;2022-09-28T04:34:08;9.50;99.90
13806;DHT22;6974;53.606;9.872;2022-09-28T04:36:35;9.50;99.90
13806;DHT22;6974;53.606;9.872;2022-09-28T04:39:03;9.50;99.90
13806;DHT22;6974;53.606;9.872;2022-09-28T04:41:30;9.50;99.90
13806;DHT22;6974;53.606;9.872;2022-09-28T04:43:57;9.50;99.90
13806;DHT22;6974;53.606;9.872;2022-09-28T04:46:24;9.50;99.90
13806;DHT22;6974;53.606;9.872;2022-09-28T04:48:50;9.60;99.90
13806;DHT22;6974;53.606;9.872;2022-09-28T04:51:17;9.60;99.90
13806;DHT22;6974;53.606;9.872;2022-09-28T04:53:44;9.60;99.90
13806;DHT22;6974;53.606;9.872;2022-09-28T04:56:14;9.60;99.90
13806;DHT22;6974;53.606;9.872;2022-09-28T04:58:41;9.60;99.90
13806;DHT22;6974;53.606;9.872;2022-09-28T05:01:11;9.60;99.90
13806;DHT22;6974;53.606;9.872;2022-09-28T05:03:38;9.60;99.90
13806;DHT22;6974;53.606;9.872;2022-09-28T05:06:06;9.60;99.90
13806;DHT22;6974;53.606;9.872;2022-09-28T05:08:33;9.60;99.90
13806;DHT22;6974;53.606;9.872;2022-09-28T05:11:02;9.60;99.90
13806;DHT22;6974;53.606;9.872;2022-09-28T05:13:33;9.60;99.90
13806;DHT22;6974;53.606;9.872;2022-09-28T05:16:00;9.60;99.90
13806;DHT22;6974;53.606;9.872;2022-09-28T05:18:27;9.60;99.90
13806;DHT22;6974;53.606;9.872;2022-09-28T05:20:54;9.60;99.90
13806;DHT22;6974;53.606;9.872;2022-09-28T05:23:21;9.50;99.90
13806;DHT22;6974;53.606;9.872;2022-09-28T05:25:48;9.60;99.90
13806;DHT22;6974;53.606;9.872;2022-09-28T05:28:21;9.60;99.90
13806;DHT22;6974;53.606;9.872;2022-09-28T05:30:50;9.60;99.90
13806;DHT22;6974;53.606;9.872;2022-09-28T05:33:17;9.60;99.90
13806;DHT22;6974;53.606;9.872;2022-09-28T05:35:44;9.60;99.90
13806;DHT22;6974;53.606;9.872;2022-09-28T05:38:11;9.60;99.90
13806;DHT22;6974;53.606;9.872;2022-09-28T05:40:38;9.60;99.90
13806;DHT22;6974;53.606;9.872;2022-09-28T05:43:05;9.60;99.90
13806;DHT22;6974;53.606;9.872;2022-09-28T05:45:31;9.60;99.90
13806;DHT22;6974;53.606;9.872;2022-09-28T05:48:00;9.60;99.90
13806;DHT22;6974;53.606;9.872;2022-09-28T05:50:27;9.60;99.90
13806;DHT22;6974;53.606;9.872;2022-09-28T05:52:57;9.60;99.90
13806;DHT22;6974;53.606;9.872;2022-09-28T05:55:24;9.60;99.90
13806;DHT22;6974;53.606;9.872;2022-09-28T05:57:51;9.60;99.90
13806;DHT22;6974;53.606;9.872;2022-09-28T06:00:18;9.60;99.90
13806;DHT22;6974;53.606;9.872;2022-09-28T06:02:55;9.60;99.90
13806;DHT22;6974;53.606;9.872;2022-09-28T06:05:23;9.70;99.90
13806;DHT22;6974;53.606;9.872;2022-09-28T06:07:50;9.70;99.90
13806;DHT22;6974;53.606;9.872;2022-09-28T06:10:17;9.60;99.90
13806;DHT22;6974;53.606;9.872;2022-09-28T06:12:44;9.60;99.90
13806;DHT22;6974;53.606;9.872;2022-09-28T06:15:13;9.60;99.90
13806;DHT22;6974;53.606;9.872;2022-09-28T06:17:40;9.60;99.90
13806;DHT22;6974;53.606;9.872;2022-09-28T06:20:09;9.60;99.90
13806;DHT22;6974;53.606;9.872;2022-09-28T06:22:37;9.60;99.90
13806;DHT22;6974;53.606;9.872;2022-09-28T06:25:05;9.70;99.90
13806;DHT22;6974;53.606;9.872;2022-09-28T06:27:32;9.70;99.90
13806;DHT22;6974;53.606;9.872;2022-09-28T06:30:00;9.70;99.90
13806;DHT22;6974;53.606;9.872;2022-09-28T06:32:27;9.80;99.90
13806;DHT22;6974;53.606;9.872;2022-09-28T06:34:54;9.80;99.90
13806;DHT22;6974;53.606;9.872;2022-09-28T06:37:21;9.80;99.90
13806;DHT22;6974;53.606;9.872;2022-09-28T06:39:51;9.70;99.90
13806;DHT22;6974;53.606;9.872;2022-09-28T06:42:18;9.80;99.90
13806;DHT22;6974;53.606;9.872;2022-09-28T06:44:45;9.80;99.90
13806;DHT22;6974;53.606;9.872;2022-09-28T06:47:12;9.80;99.90
13806;DHT22;6974;53.606;9.872;2022-09-28T06:49:39;9.80;99.90
13806;DHT22;6974;53.606;9.872;2022-09-28T06:54:40;9.80;99.90
13806;DHT22;6974;53.606;9.872;2022-09-28T06:57:08;9.80;99.90
13806;DHT22;6974;53.606;9.872;2022-09-28T06:59:35;9.80;99.90
13806;DHT22;6974;53.606;9.872;2022-09-28T07:02:03;9.80;99.90
13806;DHT22;6974;53.606;9.872;2022-09-28T07:04:30;9.80;99.90
13806;DHT22;6974;53.606;9.872;2022-09-28T07:06:58;9.80;99.90
13806;DHT22;6974;53.606;9.872;2022-09-28T07:09:25;9.90;99.90
13806;DHT22;6974;53.606;9.872;2022-09-28T07:11:52;9.80;99.90
13806;DHT22;6974;53.606;9.872;2022-09-28T07:14:21;9.90;99.90
13806;DHT22;6974;53.606;9.872;2022-09-28T07:16:50;9.90;99.90
13806;DHT22;6974;53.606;9.872;2022-09-28T07:19:17;9.90;99.90
13806;DHT22;6974;53.606;9.872;2022-09-28T07:21:50;10.00;99.90
13806;DHT22;6974;53.606;9.872;2022-09-28T07:24:18;10.00;99.90
13806;DHT22;6974;53.606;9.872;2022-09-28T07:26:46;9.90;99.90
13806;DHT22;6974;53.606;9.872;2022-09-28T07:29:13;10.00;99.90
13806;DHT22;6974;53.606;9.872;2022-09-28T07:31:41;10.00;99.90
13806;DHT22;6974;53.606;9.872;2022-09-28T07:34:08;10.00;99.90
13806;DHT22;6974;53.606;9.872;2022-09-28T07:36:36;10.10;99.90
13806;DHT22;6974;53.606;9.872;2022-09-28T07:39:03;10.10;99.90
13806;DHT22;6974;53.606;9.872;2022-09-28T07:41:30;10.10;99.90
13806;DHT22;6974;53.606;9.872;2022-09-28T07:44:00;10.20;99.90
13806;DHT22;6974;53.606;9.872;2022-09-28T07:46:31;10.10;99.90
13806;DHT22;6974;53.606;9.872;2022-09-28T07:49:00;10.20;99.90
13806;DHT22;6974;53.606;9.872;2022-09-28T07:51:30;10.30;99.90
13806;DHT22;6974;53.606;9.872;2022-09-28T07:53:58;10.30;99.90
13806;DHT22;6974;53.606;9.872;2022-09-28T07:56:26;10.30;99.90
13806;DHT22;6974;53.606;9.872;2022-09-28T07:58:53;10.40;99.90
13806;DHT22;6974;53.606;9.872;2022-09-28T08:01:20;10.30;99.90
13806;DHT22;6974;53.606;9.872;2022-09-28T08:03:47;10.30;99.90
13806;DHT22;6974;53.606;9.872;2022-09-28T08:06:16;10.30;99.90
13806;DHT22;6974;53.606;9.872;2022-09-28T08:08:43;10.40;99.90
13806;DHT22;6974;53.606;9.872;2022-09-28T08:11:12;10.40;99.90
13806;DHT22;6974;53.606;9.872;2022-09-28T08:13:39;10.40;99.90
13806;DHT22;6974;53.606;9.872;2022-09-28T08:16:07;10.40;99.90
13806;DHT22;6974;53.606;9.872;2022-09-28T08:18:34;10.50;99.90
13806;DHT22;6974;53.606;9.872;2022-09-28T08:21:02;10.50;99.90
13806;DHT22;6974;53.606;9.872;2022-09-28T08:23:48;10.50;99.90
13806;DHT22;6974;53.606;9.872;2022-09-28T08:26:15;10.60;99.90
13806;DHT22;6974;53.606;9.872;2022-09-28T08:28:43;10.70;99.90
13806;DHT22;6974;53.606;9.872;2022-09-28T08:31:12;10.70;99.90
13806;DHT22;6974;53.606;9.872;2022-09-28T08:33:39;10.90;99.90
13806;DHT22;6974;53.606;9.872;2022-09-28T08:36:09;10.90;99.90
13806;DHT22;6974;53.606;9.872;2022-09-28T08:38:36;10.90;99.90
13806;DHT22;6974;53.606;9.872;2022-09-28T08:41:13;10.90;99.90
13806;DHT22;6974;53.606;9.872;2022-09-28T08:44:02;10.90;99.90
13806;DHT22;6974;53.606;9.872;2022-09-28T08:46:37;10.90;99.90
13806;DHT22;6974;53.606;9.872;2022-09-28T08:49:09;10.90;99.90
13806;DHT22;6974;53.606;9.872;2022-09-28T08:51:43;11.00;99.90
13806;DHT22;6974;53.606;9.872;2022-09-28T08:54:23;11.10;99.90
13806;DHT22;6974;53.606;9.872;2022-09-28T08:56:57;11.10;99.90
13806;DHT22;6974;53.606;9.872;2022-09-28T08:59:41;11.10;99.90
13806;DHT22;6974;53.606;9.872;2022-09-28T09:02:15;11.20;99.90
13806;DHT22;6974;53.606;9.872;2022-09-28T09:04:44;11.20;99.90
13806;DHT22;6974;53.606;9.872;2022-09-28T09:07:30;11.20;99.90
13806;DHT22;6974;53.606;9.872;2022-09-28T09:10:11;11.20;99.90
13806;DHT22;6974;53.606;9.872;2022-09-28T09:12:46;11.20;99.90
13806;DHT22;6974;53.606;9.872;2022-09-28T09:15:28;11.30;99.90
13806;DHT22;6974;53.606;9.872;2022-09-28T09:18:10;11.40;99.90
13806;DHT22;6974;53.606;9.872;2022-09-28T09:20:46;11.40;99.90
13806;DHT22;6974;53.606;9.872;2022-09-28T09:23:17;11.50;99.90
13806;DHT22;6974;53.606;9.872;2022-09-28T09:25:48;11.60;99.90
13806;DHT22;6974;53.606;9.872;2022-09-28T09:28:42;11.80;99.90
13806;DHT22;6974;53.606;9.872;2022-09-28T09:31:25;11.90;99.90
13806;DHT22;6974;53.606;9.872;2022-09-28T09:34:19;12.10;99.90
13806;DHT22;6974;53.606;9.872;2022-09-28T09:37:01;12.30;99.90
13806;DHT22;6974;53.606;9.872;2022-09-28T09:39:41;12.50;99.90
13806;DHT22;6974;53.606;9.872;2022-09-28T09:42:23;12.70;99.90
13806;DHT22;6974;53.606;9.872;2022-09-28T09:45:08;12.80;99.90
13806;DHT22;6974;53.606;9.872;2022-09-28T09:47:42;13.00;99.90
13806;DHT22;6974;53.606;9.872;2022-09-28T09:50:18;13.20;99.90
13806;DHT22;6974;53.606;9.872;2022-09-28T09:52:57;13.50;99.90
13806;DHT22;6974;53.606;9.872;2022-09-28T09:55:28;13.70;99.90
13806;DHT22;6974;53.606;9.872;2022-09-28T09:58:03;13.80;99.90
13806;DHT22;6974;53.606;9.872;2022-09-28T10:00:32;13.90;99.90
13806;DHT22;6974;53.606;9.872;2022-09-28T10:03:00;13.90;99.90
13806;DHT22;6974;53.606;9.872;2022-09-28T10:05:30;13.90;99.90
13806;DHT22;6974;53.606;9.872;2022-09-28T10:08:02;14.00;99.90
13806;DHT22;6974;53.606;9.872;2022-09-28T10:10:33;14.10;99.90
13806;DHT22;6974;53.606;9.872;2022-09-28T10:13:00;14.20;99.90
13806;DHT22;6974;53.606;9.872;2022-09-28T10:15:29;14.30;99.90
13806;DHT22;6974;53.606;9.872;2022-09-28T10:18:02;14.30;99.90
13806;DHT22;6974;53.606;9.872;2022-09-28T10:20:33;14.30;99.90
13806;DHT22;6974;53.606;9.872;2022-09-28T10:23:02;14.20;99.90
13806;DHT22;6974;53.606;9.872;2022-09-28T10:25:33;14.30;99.90
13806;DHT22;6974;53.606;9.872;2022-09-28T10:28:04;14.20;99.90
13806;DHT22;6974;53.606;9.872;2022-09-28T10:30:35;14.10;99.90
13806;DHT22;6974;53.606;9.872;2022-09-28T10:33:26;14.00;99.90
13806;DHT22;6974;53.606;9.872;2022-09-28T10:35:56;13.80;99.90
13806;DHT22;6974;53.606;9.872;2022-09-28T10:38:25;13.70;99.90
13806;DHT22;6974;53.606;9.872;2022-09-28T10:40:53;13.60;99.90
13806;DHT22;6974;53.606;9.872;2022-09-28T10:43:25;13.60;99.90
13806;DHT22;6974;53.606;9.872;2022-09-28T10:46:00;13.50;99.90
13806;DHT22;6974;53.606;9.872;2022-09-28T10:48:45;13.40;99.90
13806;DHT22;6974;53.606;9.872;2022-09-28T10:51:13;13.40;99.90
13806;DHT22;6974;53.606;9.872;2022-09-28T10:53:40;13.40;99.90
13806;DHT22;6974;53.606;9.872;2022-09-28T10:56:18;13.40;99.90
13806;DHT22;6974;53.606;9.872;2022-09-28T10:58:45;13.30;99.90
13806;DHT22;6974;53.606;9.872;2022-09-28T11:01:15;13.30;99.90
13806;DHT22;6974;53.606;9.872;2022-09-28T11:03:52;13.30;99.90
13806;DHT22;6974;53.606;9.872;2022-09-28T11:06:25;13.40;99.90
13806;DHT22;6974;53.606;9.872;2022-09-28T11:08:54;13.40;99.90
13806;DHT22;6974;53.606;9.872;2022-09-28T11:11:22;13.20;99.90
13806;DHT22;6974;53.606;9.872;2022-09-28T11:13:52;13.20;99.90
13806;DHT22;6974;53.606;9.872;2022-09-28T11:16:25;13.20;99.90
13806;DHT22;6974;53.606;9.872;2022-09-28T11:18:55;13.20;99.90
13806;DHT22;6974;53.606;9.872;2022-09-28T11:21:25;13.20;99.90
13806;DHT22;6974;53.606;9.872;2022-09-28T11:23:57;13.20;99.90
13806;DHT22;6974;53.606;9.872;2022-09-28T11:26:26;13.20;99.90
13806;DHT22;6974;53.606;9.872;2022-09-28T11:28:59;13.30;99.90
13806;DHT22;6974;53.606;9.872;2022-09-28T11:31:27;13.30;99.90
13806;DHT22;6974;53.606;9.872;2022-09-28T11:34:18;13.30;99.90
13806;DHT22;6974;53.606;9.872;2022-09-28T11:37:02;13.20;99.90
13806;DHT22;6974;53.606;9.872;2022-09-28T11:39:39;13.30;99.90
13806;DHT22;6974;53.606;9.872;2022-09-28T11:42:16;13.30;99.90
13806;DHT22;6974;53.606;9.872;2022-09-28T11:44:48;13.30;99.90
13806;DHT22;6974;53.606;9.872;2022-09-28T11:50:26;13.40;99.90
13806;DHT22;6974;53.606;9.872;2022-09-28T11:53:03;13.40;99.90
13806;DHT22;6974;53.606;9.872;2022-09-28T11:55:40;13.50;99.90
13806;DHT22;6974;53.606;9.872;2022-09-28T11:58:11;13.50;99.90
13806;DHT22;6974;53.606;9.872;2022-09-28T12:00:45;13.50;99.90
13806;DHT22;6974;53.606;9.872;2022-09-28T12:03:15;13.50;99.90
13806;DHT22;6974;53.606;9.872;2022-09-28T12:05:48;13.50;99.90
13806;DHT22;6974;53.606;9.872;2022-09-28T12:08:20;13.50;99.90
13806;DHT22;6974;53.606;9.872;2022-09-28T12:10:54;13.50;99.90
13806;DHT22;6974;53.606;9.872;2022-09-28T12:13:25;13.50;99.90
13806;DHT22;6974;53.606;9.872;2022-09-28T12:15:56;13.50;99.90
13806;DHT22;6974;53.606;9.872;2022-09-28T12:18:29;13.50;99.90
13806;DHT22;6974;53.606;9.872;2022-09-28T12:21:11;13.50;99.90
13806;DHT22;6974;53.606;9.872;2022-09-28T12:23:45;13.50;99.90
13806;DHT22;6974;53.606;9.872;2022-09-28T12:26:23;13.40;99.90
13806;DHT22;6974;53.606;9.872;2022-09-28T12:28:55;13.40;99.90
13806;DHT22;6974;53.606;9.872;2022-09-28T12:31:37;13.40;99.90
13806;DHT22;6974;53.606;9.872;2022-09-28T12:34:08;13.40;99.90
13806;DHT22;6974;53.606;9.872;2022-09-28T12:36:49;13.40;99.90
13806;DHT22;6974;53.606;9.872;2022-09-28T12:39:30;13.40;99.90
13806;DHT22;6974;53.606;9.872;2022-09-28T12:42:15;13.30;99.90
13806;DHT22;6974;53.606;9.872;2022-09-28T12:45:06;13.30;99.90
13806;DHT22;6974;53.606;9.872;2022-09-28T12:47:58;13.30;99.90
13806;DHT22;6974;53.606;9.872;2022-09-28T12:50:31;13.30;99.90
13806;DHT22;6974;53.606;9.872;2022-09-28T12:53:15;13.30;99.90
13806;DHT22;6974;53.606;9.872;2022-09-28T12:56:00;13.40;99.90
13806;DHT22;6974;53.606;9.872;2022-09-28T12:58:43;13.40;99.90
13806;DHT22;6974;53.606;9.872;2022-09-28T13:01:26;13.40;99.90
13806;DHT22;6974;53.606;9.872;2022-09-28T13:04:05;13.40;99.90
13806;DHT22;6974;53.606;9.872;2022-09-28T13:06:51;13.50;99.90
13806;DHT22;6974;53.606;9.872;2022-09-28T13:09:23;13.40;99.90
13806;DHT22;6974;53.606;9.872;2022-09-28T13:12:01;13.40;99.90
13806;DHT22;6974;53.606;9.872;2022-09-28T13:14:53;13.40;99.90
13806;DHT22;6974;53.606;9.872;2022-09-28T13:17:41;13.30;99.90
13806;DHT22;6974;53.606;9.872;2022-09-28T13:20:22;13.30;99.90
13806;DHT22;6974;53.606;9.872;2022-09-28T13:22:56;13.40;99.90
13806;DHT22;6974;53.606;9.872;2022-09-28T13:25:29;13.40;99.90
13806;DHT22;6974;53.606;9.872;2022-09-28T13:28:00;13.40;99.90
13806;DHT22;6974;53.606;9.872;2022-09-28T13:30:28;13.40;99.90
13806;DHT22;6974;53.606;9.872;2022-09-28T13:32:55;13.50;99.90
13806;DHT22;6974;53.606;9.872;2022-09-28T13:35:23;13.40;99.90
13806;DHT22;6974;53.606;9.872;2022-09-28T13:41:10;13.40;99.90
13806;DHT22;6974;53.606;9.872;2022-09-28T13:46:33;13.50;99.90
13806;DHT22;6974;53.606;9.872;2022-09-28T13:49:08;13.50;99.90
13806;DHT22;6974;53.606;9.872;2022-09-28T13:51:46;13.60;99.90
13806;DHT22;6974;53.606;9.872;2022-09-28T13:54:32;13.60;99.90
13806;DHT22;6974;53.606;9.872;2022-09-28T13:57:12;13.70;99.90
13806;DHT22;6974;53.606;9.872;2022-09-28T13:59:51;13.80;99.90
13806;DHT22;6974;53.606;9.872;2022-09-28T14:02:29;13.70;99.90
13806;DHT22;6974;53.606;9.872;2022-09-28T14:04:59;13.70;99.90
13806;DHT22;6974;53.606;9.872;2022-09-28T14:07:56;13.70;99.90
13806;DHT22;6974;53.606;9.872;2022-09-28T14:10:49;13.60;99.90
13806;DHT22;6974;53.606;9.872;2022-09-28T14:13:56;13.60;99.90
13806;DHT22;6974;53.606;9.872;2022-09-28T14:16:24;13.60;99.90
13806;DHT22;6974;53.606;9.872;2022-09-28T14:18:54;13.60;99.90
13806;DHT22;6974;53.606;9.872;2022-09-28T14:21:39;13.60;99.90
13806;DHT22;6974;53.606;9.872;2022-09-28T14:24:18;13.60;99.90
13806;DHT22;6974;53.606;9.872;2022-09-28T14:26:59;13.60;99.90
13806;DHT22;6974;53.606;9.872;2022-09-28T14:29:29;13.60;99.90
13806;DHT22;6974;53.606;9.872;2022-09-28T14:31:57;13.60;99.90
13806;DHT22;6974;53.606;9.872;2022-09-28T14:34:30;13.60;99.90
13806;DHT22;6974;53.606;9.872;2022-09-28T14:36:59;13.60;99.90
13806;DHT22;6974;53.606;9.872;2022-09-28T14:39:46;13.60;99.90
13806;DHT22;6974;53.606;9.872;2022-09-28T14:42:31;13.60;99.90
13806;DHT22;6974;53.606;9.872;2022-09-28T14:45:32;13.60;99.90
13806;DHT22;6974;53.606;9.872;2022-09-28T14:48:18;13.70;99.90
13806;DHT22;6974;53.606;9.872;2022-09-28T14:50:46;13.70;99.90
13806;DHT22;6974;53.606;9.872;2022-09-28T14:53:18;13.70;99.90
13806;DHT22;6974;53.606;9.872;2022-09-28T14:55:50;13.60;99.90
13806;DHT22;6974;53.606;9.872;2022-09-28T14:58:22;13.60;99.90
13806;DHT22;6974;53.606;9.872;2022-09-28T15:00:54;13.60;99.90
13806;DHT22;6974;53.606;9.872;2022-09-28T15:03:24;13.50;99.90
13806;DHT22;6974;53.606;9.872;2022-09-28T15:05:52;13.40;99.90
13806;DHT22;6974;53.606;9.872;2022-09-28T15:08:19;13.40;99.90
13806;DHT22;6974;53.606;9.872;2022-09-28T15:10:49;13.30;99.90
13806;DHT22;6974;53.606;9.872;2022-09-28T15:13:23;13.30;99.90
13806;DHT22;6974;53.606;9.872;2022-09-28T15:15:52;13.30;99.90
13806;DHT22;6974;53.606;9.872;2022-09-28T15:18:35;13.20;99.90
13806;DHT22;6974;53.606;9.872;2022-09-28T15:21:07;13.20;99.90
13806;DHT22;6974;53.606;9.872;2022-09-28T15:23:36;13.20;99.90
13806;DHT22;6974;53.606;9.872;2022-09-28T15:26:06;13.20;99.90
13806;DHT22;6974;53.606;9.872;2022-09-28T15:28:34;13.20;99.90
13806;DHT22;6974;53.606;9.872;2022-09-28T15:31:04;13.20;99.90
13806;DHT22;6974;53.606;9.872;2022-09-28T15:33:32;13.20;99.90
13806;DHT22;6974;53.606;9.872;2022-09-28T15:36:20;13.20;99.90
13806;DHT22;6974;53.606;9.872;2022-09-28T15:38:53;13.10;99.90
13806;DHT22;6974;53.606;9.872;2022-09-28T15:41:23;13.00;99.90
13806;DHT22;6974;53.606;9.872;2022-09-28T15:44:14;13.10;99.90
13806;DHT22;6974;53.606;9.872;2022-09-28T15:46:45;13.10;99.90
13806;DHT22;6974;53.606;9.872;2022-09-28T15:49:23;13.10;99.90
13806;DHT22;6974;53.606;9.872;2022-09-28T15:51:51;13.10;99.90
13806;DHT22;6974;53.606;9.872;2022-09-28T15:54:23;13.10;99.90
13806;DHT22;6974;53.606;9.872;2022-09-28T15:56:55;13.10;99.90
13806;DHT22;6974;53.606;9.872;2022-09-28T15:59:29;13.10;99.90
13806;DHT22;6974;53.606;9.872;2022-09-28T16:02:15;13.10;99.90
13806;DHT22;6974;53.606;9.872;2022-09-28T16:04:46;13.10;99.90
13806;DHT22;6974;53.606;9.872;2022-09-28T16:07:23;13.00;99.90
13806;DHT22;6974;53.606;9.872;2022-09-28T16:10:23;13.00;99.90
13806;DHT22;6974;53.606;9.872;2022-09-28T16:12:57;13.00;99.90
13806;DHT22;6974;53.606;9.872;2022-09-28T16:15:29;12.90;99.90
13806;DHT22;6974;53.606;9.872;2022-09-28T16:18:00;12.80;99.90
13806;DHT22;6974;53.606;9.872;2022-09-28T16:20:30;12.80;99.90
13806;DHT22;6974;53.606;9.872;2022-09-28T16:22:59;12.80;99.90
13806;DHT22;6974;53.606;9.872;2022-09-28T16:25:31;12.70;99.90
13806;DHT22;6974;53.606;9.872;2022-09-28T16:28:03;12.60;99.90
13806;DHT22;6974;53.606;9.872;2022-09-28T16:30:31;12.60;99.90
13806;DHT22;6974;53.606;9.872;2022-09-28T16:33:00;12.60;99.90
13806;DHT22;6974;53.606;9.872;2022-09-28T16:35:29;12.50;99.90